Time;durP1;ratioP1;P1;durP2;ratioP2;P2;SDS_P1;SDS_P2;PMS_P1;PMS_P2;Temp;Humidity;BMP_temperature;BMP_pressure;BME280_temperature;BME280_humidity;BME280_pressure;Samples;Min_cycle;Max_cycle;Signal;HPM_P1;HPM_P2
2022/12/20 00:02:03;;;;;;;51.97;27.67;;;;;;;2.49;100.00;99579.84;5082616;28;20206;-79
2022/12/20 00:04:31;;;;;;;48.40;28.87;;;;;;;2.53;100.00;99584.97;5035315;28;20216;-79
2022/12/20 00:06:59;;;;;;;47.23;27.43;;;;;;;2.52;100.00;99577.19;5044829;28;20336;-79
2022/12/20 00:09:30;;;;;;;48.50;27.07;;;;;;;2.59;100.00;99579.59;5021857;28;20202;-79
2022/12/20 00:11:59;;;;;;;50.37;28.37;;;;;;;2.53;100.00;99578.91;5027950;28;20298;-79
2022/12/20 00:14:29;;;;;;;48.00;28.00;;;;;;;2.56;100.00;99576.19;5048960;28;20771;-79
2022/12/20 00:16:58;;;;;;;46.20;28.00;;;;;;;2.52;100.00;99561.50;5049776;28;20197;-79
2022/12/20 00:19:28;;;;;;;52.63;30.27;;;;;;;2.50;100.00;99555.41;5046726;28;20271;-79
2022/12/20 00:21:58;;;;;;;45.40;27.23;;;;;;;2.58;100.00;99563.94;5050711;28;20189;-79
2022/12/20 00:24:26;;;;;;;45.20;26.60;;;;;;;2.70;100.00;99560.16;5015303;28;20251;-79
2022/12/20 00:26:55;;;;;;;46.30;26.93;;;;;;;2.65;100.00;99560.28;5058420;28;20206;-79
2022/12/20 00:29:24;;;;;;;48.20;27.83;;;;;;;2.69;100.00;99553.19;5109400;28;20240;-79
2022/12/20 00:31:53;;;;;;;44.90;26.73;;;;;;;2.56;100.00;99553.53;5111300;28;20187;-79
2022/12/20 00:34:21;;;;;;;51.73;28.50;;;;;;;2.52;100.00;99554.50;5104643;28;20226;-79
2022/12/20 00:36:52;;;;;;;49.00;27.03;;;;;;;2.57;100.00;99547.38;5111422;28;20191;-79
2022/12/20 00:39:22;;;;;;;48.60;27.00;;;;;;;2.59;100.00;99542.13;5105176;28;20187;-79
2022/12/20 00:41:51;;;;;;;49.70;27.07;;;;;;;2.56;100.00;99543.06;5104053;28;20206;-80
2022/12/20 00:44:21;;;;;;;43.60;25.80;;;;;;;2.65;100.00;99536.75;5106582;28;20800;-79
2022/12/20 00:46:49;;;;;;;46.80;27.47;;;;;;;2.52;100.00;99532.72;5106504;28;20315;-79
2022/12/20 00:49:18;;;;;;;49.17;26.60;;;;;;;2.62;100.00;99535.97;5105739;28;20210;-79
2022/12/20 00:51:47;;;;;;;47.53;26.20;;;;;;;2.66;100.00;99522.75;5046941;28;20190;-79
2022/12/20 00:54:17;;;;;;;45.03;26.03;;;;;;;2.68;100.00;99514.88;5005788;28;20195;-80
2022/12/20 00:56:45;;;;;;;46.17;26.43;;;;;;;2.68;100.00;99514.88;5044161;28;20185;-79
2022/12/20 00:59:14;;;;;;;47.80;26.47;;;;;;;2.73;100.00;99520.84;5047826;28;20288;-79
2022/12/20 01:01:43;;;;;;;44.93;25.63;;;;;;;2.76;100.00;99526.00;5048725;28;20193;-79
2022/12/20 01:04:11;;;;;;;47.50;27.13;;;;;;;2.73;100.00;99521.72;5018475;28;20216;-79
2022/12/20 01:06:40;;;;;;;47.40;25.83;;;;;;;2.70;100.00;99519.19;5047661;28;20205;-79
2022/12/20 01:09:08;;;;;;;45.07;26.30;;;;;;;2.75;100.00;99516.44;4997858;28;20213;-79
2022/12/20 01:11:39;;;;;;;45.20;26.37;;;;;;;2.68;100.00;99530.56;5033514;28;20200;-79
2022/12/20 01:14:12;;;;;;;43.67;25.80;;;;;;;2.64;100.00;99529.81;4970305;28;20235;-79
2022/12/20 01:16:43;;;;;;;44.83;25.97;;;;;;;2.71;100.00;99525.28;4973326;28;20340;-80
2022/12/20 01:19:15;;;;;;;45.87;25.97;;;;;;;2.75;100.00;99526.91;4973487;28;20734;-79
2022/12/20 01:21:44;;;;;;;42.53;26.07;;;;;;;2.77;100.00;99523.34;4968778;28;21072;-79
2022/12/20 01:24:12;;;;;;;46.10;25.53;;;;;;;2.83;100.00;99524.94;4972013;28;20231;-79
2022/12/20 01:26:43;;;;;;;47.27;26.70;;;;;;;2.73;100.00;99516.47;4992545;28;20196;-80
2022/12/20 01:29:13;;;;;;;44.83;26.13;;;;;;;2.72;100.00;99525.22;5071824;28;20197;-80
2022/12/20 01:31:41;;;;;;;47.07;26.80;;;;;;;2.78;100.00;99517.19;5090841;27;20193;-79
2022/12/20 01:34:10;;;;;;;44.50;26.23;;;;;;;2.73;100.00;99510.41;5171120;27;20190;-79
2022/12/20 01:36:39;;;;;;;46.67;26.23;;;;;;;2.71;100.00;99507.81;5165829;27;20205;-80
2022/12/20 01:39:11;;;;;;;45.33;25.93;;;;;;;2.74;100.00;99509.50;5168557;27;20612;-79
2022/12/20 01:41:42;;;;;;;44.80;26.07;;;;;;;2.80;100.00;99499.75;5170232;27;20196;-79
2022/12/20 01:44:44;;;;;;;48.30;26.73;;;;;;;2.80;100.00;99504.97;5172207;27;20213;-79
2022/12/20 01:47:14;;;;;;;47.63;25.17;;;;;;;2.78;100.00;99501.50;5173754;27;20193;-79
2022/12/20 01:49:50;;;;;;;48.70;25.97;;;;;;;2.80;100.00;99514.56;5171991;27;20321;-79
2022/12/20 01:52:23;;;;;;;45.10;27.17;;;;;;;2.85;100.00;99517.91;5164994;27;20192;-79
2022/12/20 01:54:54;;;;;;;44.83;26.07;;;;;;;2.81;100.00;99525.00;5166552;27;20196;-79
2022/12/20 01:57:33;;;;;;;47.37;27.70;;;;;;;2.73;100.00;99513.00;5167183;27;20249;-79
2022/12/20 02:00:07;;;;;;;46.57;26.73;;;;;;;2.82;100.00;99495.31;5168004;27;20214;-79
2022/12/20 02:02:36;;;;;;;46.63;26.30;;;;;;;2.70;100.00;99486.91;5107282;28;20195;-79
2022/12/20 02:05:06;;;;;;;44.50;26.47;;;;;;;2.72;100.00;99496.47;5107867;28;20207;-79
2022/12/20 02:07:37;;;;;;;46.20;26.87;;;;;;;2.64;100.00;99510.63;5107302;28;20199;-79
2022/12/20 02:10:08;;;;;;;45.97;26.00;;;;;;;2.72;100.00;99506.94;5111883;28;20236;-79
2022/12/20 02:12:42;;;;;;;46.97;26.17;;;;;;;2.74;100.00;99476.34;5105363;28;20191;-78
2022/12/20 02:15:37;;;;;;;47.77;27.13;;;;;;;2.69;100.00;99496.53;5108156;28;20201;-79
2022/12/20 02:18:17;;;;;;;46.03;27.80;;;;;;;2.67;100.00;99495.72;5105688;28;20255;-79
2022/12/20 02:21:05;;;;;;;46.27;26.57;;;;;;;2.72;100.00;99482.53;5110832;28;20240;-79
2022/12/20 02:23:55;;;;;;;46.57;26.37;;;;;;;2.83;100.00;99476.09;5079715;28;20276;-79
2022/12/20 02:26:51;;;;;;;49.73;28.30;;;;;;;2.78;100.00;99458.81;5116658;27;20216;-79
2022/12/20 02:29:30;;;;;;;44.93;25.77;;;;;;;2.70;100.00;99456.44;5170324;27;20193;-79
2022/12/20 02:32:04;;;;;;;45.30;25.87;;;;;;;2.74;100.00;99462.41;5170816;27;20193;-79
2022/12/20 02:34:37;;;;;;;42.30;25.47;;;;;;;2.73;100.00;99456.34;5170079;27;20257;-79
2022/12/20 02:37:05;;;;;;;47.07;25.77;;;;;;;2.74;100.00;99457.19;5172960;27;20224;-79
2022/12/20 02:39:34;;;;;;;45.90;26.00;;;;;;;2.74;100.00;99454.56;5167321;27;20216;-79
2022/12/20 02:42:06;;;;;;;42.23;24.77;;;;;;;2.72;100.00;99459.00;5068281;28;20256;-79
2022/12/20 02:47:31;;;;;;;43.87;26.03;;;;;;;2.68;100.00;99463.44;5070528;28;20662;-79
2022/12/20 02:50:01;;;;;;;47.00;26.80;;;;;;;2.78;100.00;99461.41;5064902;28;20208;-79
2022/12/20 02:52:31;;;;;;;43.03;26.43;;;;;;;2.68;100.00;99462.56;5061700;28;20701;-79
2022/12/20 02:55:00;;;;;;;44.37;25.70;;;;;;;2.73;100.00;99461.56;5062084;28;20197;-79
2022/12/20 02:57:38;;;;;;;44.37;25.90;;;;;;;2.64;100.00;99460.97;5060928;28;20192;-79
2022/12/20 03:00:10;;;;;;;43.83;25.43;;;;;;;2.67;100.00;99453.03;5109655;27;20196;-79
2022/12/20 03:05:31;;;;;;;46.17;26.23;;;;;;;2.62;100.00;99445.31;5175283;27;20217;-79
2022/12/20 03:08:00;;;;;;;43.10;25.83;;;;;;;2.61;100.00;99454.06;5164144;27;20196;-79
2022/12/20 03:10:29;;;;;;;42.90;24.83;;;;;;;2.69;100.00;99457.28;5168253;27;20193;-79
2022/12/20 03:12:58;;;;;;;45.23;26.07;;;;;;;2.71;100.00;99447.69;5127244;27;20709;-79
2022/12/20 03:15:26;;;;;;;46.07;27.17;;;;;;;2.62;100.00;99450.53;5122860;27;20276;-79
2022/12/20 03:17:56;;;;;;;45.60;25.03;;;;;;;2.72;100.00;99459.00;5122978;27;20202;-79
2022/12/20 03:20:25;;;;;;;42.90;26.10;;;;;;;2.77;100.00;99454.47;5126882;27;20190;-79
2022/12/20 03:22:54;;;;;;;42.90;24.13;;;;;;;2.82;100.00;99466.53;5123030;27;20190;-79
2022/12/20 03:25:25;;;;;;;42.87;25.40;;;;;;;2.87;100.00;99461.16;5118396;27;20222;-79
2022/12/20 03:27:55;;;;;;;44.90;25.40;;;;;;;2.86;100.00;99459.47;5119662;28;20186;-79
2022/12/20 03:30:24;;;;;;;41.20;24.70;;;;;;;2.93;100.00;99468.84;5129316;27;20193;-79
2022/12/20 03:32:52;;;;;;;46.43;26.00;;;;;;;2.93;100.00;99466.25;5174020;27;20566;-79
2022/12/20 03:35:23;;;;;;;42.10;25.50;;;;;;;3.03;100.00;99459.00;5170161;27;20197;-79
2022/12/20 03:37:51;;;;;;;44.23;25.60;;;;;;;2.86;100.00;99469.91;5175576;27;20225;-79
2022/12/20 03:40:20;;;;;;;47.80;25.77;;;;;;;2.85;100.00;99479.53;5179747;27;20185;-79
2022/12/20 03:42:48;;;;;;;40.40;24.63;;;;;;;2.94;100.00;99477.56;5173789;27;20197;-79
2022/12/20 03:45:17;;;;;;;44.83;26.20;;;;;;;2.90;100.00;99479.41;5164938;27;20215;-79
2022/12/20 03:47:46;;;;;;;47.57;27.97;;;;;;;2.86;100.00;99473.38;5165619;27;20185;-79
2022/12/20 03:50:14;;;;;;;44.83;26.10;;;;;;;2.95;100.00;99466.19;5172667;27;20195;-79
2022/12/20 03:52:45;;;;;;;43.30;24.80;;;;;;;2.91;100.00;99456.72;5169584;27;20261;-79
2022/12/20 03:55:14;;;;;;;46.97;26.50;;;;;;;2.86;100.00;99451.59;5166145;27;20197;-79
2022/12/20 03:57:43;;;;;;;42.10;24.90;;;;;;;2.86;100.00;99456.84;5176021;27;20193;-79
2022/12/20 04:00:12;;;;;;;45.60;25.27;;;;;;;2.91;100.00;99457.59;5165495;27;20663;-79
2022/12/20 04:02:41;;;;;;;45.63;25.77;;;;;;;2.93;100.00;99454.91;5174721;27;20201;-79
2022/12/20 04:05:10;;;;;;;43.40;26.00;;;;;;;2.95;100.00;99456.59;5166426;27;20272;-79
2022/12/20 04:07:39;;;;;;;46.20;26.80;;;;;;;2.94;100.00;99448.78;5171066;27;20241;-79
2022/12/20 04:10:10;;;;;;;43.87;25.70;;;;;;;3.00;100.00;99453.84;5175714;27;20185;-79
2022/12/20 04:12:39;;;;;;;47.27;25.20;;;;;;;2.91;100.00;99441.88;5109326;28;20195;-79
2022/12/20 04:15:08;;;;;;;44.77;26.07;;;;;;;2.99;100.00;99458.22;5062071;28;20662;-79
2022/12/20 04:17:37;;;;;;;44.30;25.40;;;;;;;2.97;100.00;99436.47;5108194;28;20199;-79
2022/12/20 04:20:18;;;;;;;43.10;25.70;;;;;;;3.03;100.00;99445.91;5103964;28;20195;-79
2022/12/20 04:22:49;;;;;;;41.00;24.57;;;;;;;2.95;100.00;99440.88;5114346;28;20222;-79
2022/12/20 04:25:21;;;;;;;45.00;25.53;;;;;;;2.90;100.00;99455.03;5106562;28;20234;-80
2022/12/20 04:27:49;;;;;;;38.83;24.73;;;;;;;2.97;100.00;99460.00;5109097;28;20206;-79
2022/12/20 04:30:18;;;;;;;43.30;24.83;;;;;;;2.97;100.00;99460.00;5119418;27;20308;-80
2022/12/20 04:32:46;;;;;;;41.93;24.87;;;;;;;2.93;100.00;99460.16;5170340;27;20222;-79
2022/12/20 04:35:17;;;;;;;42.20;25.73;;;;;;;3.00;100.00;99451.25;5172667;27;20189;-79
2022/12/20 04:37:47;;;;;;;47.40;26.23;;;;;;;2.96;100.00;99445.22;5106946;28;20203;-79
2022/12/20 04:40:16;;;;;;;42.87;25.40;;;;;;;3.10;100.00;99440.47;5030304;28;20261;-79
2022/12/20 04:42:46;;;;;;;40.77;25.00;;;;;;;3.16;100.00;99436.78;5026154;28;20755;-79
2022/12/20 04:45:15;;;;;;;40.70;25.03;;;;;;;3.12;100.00;99428.19;5029181;28;20194;-79
2022/12/20 04:47:44;;;;;;;47.73;25.87;;;;;;;3.15;100.00;99428.09;5031174;28;20241;-80
2022/12/20 04:50:13;;;;;;;41.10;24.87;;;;;;;3.19;100.00;99431.47;5027149;28;20272;-79
2022/12/20 04:55:27;;;;;;;40.53;24.53;;;;;;;3.31;100.00;99412.78;5043654;28;20200;-79
2022/12/20 04:57:58;;;;;;;42.07;24.93;;;;;;;3.32;100.00;99403.16;5097264;27;20193;-79
2022/12/20 05:00:37;;;;;;;40.93;25.80;;;;;;;3.30;100.00;99410.22;5168555;27;20273;-79
2022/12/20 05:03:06;;;;;;;39.90;23.33;;;;;;;3.34;100.00;99412.69;5174511;27;20197;-79
2022/12/20 05:05:34;;;;;;;39.00;24.03;;;;;;;3.41;100.00;99414.22;5171957;27;20185;-79
2022/12/20 05:08:03;;;;;;;38.93;24.57;;;;;;;3.33;100.00;99413.59;5171881;27;20231;-79
2022/12/20 05:10:33;;;;;;;37.00;23.97;;;;;;;3.36;100.00;99404.78;5170189;27;20664;-78
2022/12/20 05:13:03;;;;;;;38.40;23.77;;;;;;;3.42;100.00;99405.44;5124568;27;20237;-78
2022/12/20 05:15:39;;;;;;;38.27;23.90;;;;;;;3.36;100.00;99391.69;5169766;27;20224;-79
2022/12/20 05:18:09;;;;;;;37.37;22.67;;;;;;;3.43;100.00;99395.84;5167267;27;20189;-80
2022/12/20 05:20:37;;;;;;;37.33;23.27;;;;;;;3.47;100.00;99396.59;5177496;27;20192;-80
2022/12/20 05:28:42;;;;;;;38.63;22.17;;;;;;;3.48;100.00;99398.31;5174263;27;20193;-79
2022/12/20 05:31:11;;;;;;;37.73;21.67;;;;;;;3.58;100.00;99399.75;5167093;27;20238;-79
2022/12/20 05:33:39;;;;;;;35.47;22.10;;;;;;;3.51;100.00;99400.84;5169959;27;20199;-79
2022/12/20 05:36:09;;;;;;;37.73;21.67;;;;;;;3.47;100.00;99422.78;5169481;27;20189;-79
2022/12/20 05:38:37;;;;;;;36.93;22.87;;;;;;;3.54;100.00;99411.22;5108659;28;20187;-79
2022/12/20 05:41:07;;;;;;;36.50;22.10;;;;;;;3.65;100.00;99411.72;5111432;28;20256;-79
2022/12/20 05:43:35;;;;;;;36.87;22.63;;;;;;;3.65;100.00;99411.72;5106001;28;20192;-79
2022/12/20 05:46:09;;;;;;;40.33;23.47;;;;;;;3.66;100.00;99397.72;5106038;28;20188;-79
2022/12/20 05:48:38;;;;;;;32.20;20.63;;;;;;;3.68;100.00;99386.31;5076053;28;20203;-79
2022/12/20 05:51:08;;;;;;;37.27;22.73;;;;;;;3.63;100.00;99382.97;5108485;28;20195;-79
2022/12/20 05:53:39;;;;;;;38.03;22.77;;;;;;;3.76;100.00;99374.69;5106101;28;20198;-80
2022/12/20 05:56:10;;;;;;;32.73;21.60;;;;;;;3.76;100.00;99378.16;5065853;28;20208;-80
2022/12/20 05:58:39;;;;;;;34.10;21.80;;;;;;;3.78;100.00;99386.00;5064939;28;20196;-79
2022/12/20 06:01:10;;;;;;;36.83;23.17;;;;;;;3.73;100.00;99376.53;5007130;28;20264;-80
2022/12/20 06:03:39;;;;;;;39.00;23.27;;;;;;;3.68;100.00;99378.44;5046605;28;20238;-79
2022/12/20 06:06:08;;;;;;;35.67;22.03;;;;;;;3.74;100.00;99382.63;5067047;28;20220;-79
2022/12/20 06:08:42;;;;;;;37.17;21.43;;;;;;;3.70;100.00;99362.69;5066182;28;20188;-80
2022/12/20 06:11:11;;;;;;;34.40;22.07;;;;;;;3.77;100.00;99364.19;5065288;28;20193;-79
2022/12/20 06:13:39;;;;;;;37.20;23.23;;;;;;;3.82;100.00;99375.38;5070180;28;20317;-79
2022/12/20 06:16:09;;;;;;;34.47;21.40;;;;;;;3.81;100.00;99376.28;5086544;28;20245;-79
2022/12/20 06:18:40;;;;;;;39.30;22.77;;;;;;;3.76;100.00;99385.19;5096659;27;20211;-80
2022/12/20 06:21:09;;;;;;;35.80;22.13;;;;;;;3.80;100.00;99392.06;5106863;28;20684;-79
2022/12/20 06:23:38;;;;;;;40.90;22.73;;;;;;;3.66;100.00;99384.63;5109019;28;20371;-80
2022/12/20 06:26:08;;;;;;;33.73;21.57;;;;;;;3.78;100.00;99386.88;5111645;28;20228;-79
2022/12/20 06:28:41;;;;;;;34.77;21.50;;;;;;;3.70;100.00;99379.25;5108167;28;20219;-79
2022/12/20 06:31:12;;;;;;;36.70;21.70;;;;;;;3.71;100.00;99382.72;5103824;28;20195;-79
2022/12/20 06:33:41;;;;;;;34.90;21.43;;;;;;;3.61;100.00;99381.31;5107967;28;20194;-79
2022/12/20 06:36:10;;;;;;;39.63;22.33;;;;;;;3.59;100.00;99370.88;5103029;28;20199;-80
2022/12/20 06:38:40;;;;;;;35.80;21.03;;;;;;;3.61;100.00;99378.69;5123258;27;20193;-80
2022/12/20 06:41:08;;;;;;;36.60;22.00;;;;;;;3.67;100.00;99373.25;5165982;27;20289;-80
2022/12/20 06:43:40;;;;;;;37.47;21.93;;;;;;;3.70;100.00;99374.00;5167201;27;20261;-80
2022/12/20 06:46:08;;;;;;;32.33;19.77;;;;;;;3.72;100.00;99374.81;5168761;27;20188;-80
2022/12/20 06:48:38;;;;;;;36.63;23.17;;;;;;;3.62;100.00;99378.63;5168287;27;20216;-80
2022/12/20 06:51:08;;;;;;;34.73;21.83;;;;;;;3.66;100.00;99380.25;5086681;28;20195;-80
2022/12/20 06:53:37;;;;;;;36.17;21.80;;;;;;;3.72;100.00;99374.81;5085855;28;20199;-80
2022/12/20 06:56:07;;;;;;;35.23;21.83;;;;;;;3.81;100.00;99384.13;5079333;28;20253;-79
2022/12/20 06:58:35;;;;;;;34.30;21.47;;;;;;;3.77;100.00;99387.78;5086791;28;20195;-79
2022/12/20 07:01:05;;;;;;;38.50;22.73;;;;;;;3.71;100.00;99398.44;5085518;28;20707;-79
2022/12/20 07:03:34;;;;;;;34.77;21.27;;;;;;;3.82;100.00;99390.22;5084125;28;20204;-80
2022/12/20 07:06:08;;;;;;;35.83;22.57;;;;;;;3.77;100.00;99392.16;5088362;28;20378;-80
2022/12/20 07:08:36;;;;;;;34.13;21.00;;;;;;;3.84;100.00;99388.41;5103957;27;20273;-79
2022/12/20 07:11:06;;;;;;;38.20;22.10;;;;;;;3.74;100.00;99390.47;5118517;27;20253;-79
2022/12/20 07:13:35;;;;;;;32.90;21.50;;;;;;;3.81;100.00;99392.00;5165663;27;20214;-80
2022/12/20 07:16:05;;;;;;;38.43;22.07;;;;;;;3.78;100.00;99399.97;5170822;27;20196;-80
2022/12/20 07:18:35;;;;;;;35.43;21.57;;;;;;;3.84;100.00;99389.25;5168384;27;20189;-80
2022/12/20 07:21:06;;;;;;;39.00;22.50;;;;;;;3.87;100.00;99396.19;5162191;27;20189;-80
2022/12/20 07:23:35;;;;;;;36.73;22.27;;;;;;;3.85;100.00;99390.97;5166732;27;20319;-80
2022/12/20 07:26:04;;;;;;;36.23;21.27;;;;;;;3.88;100.00;99390.88;5170396;27;20215;-79
2022/12/20 07:28:33;;;;;;;36.83;21.07;;;;;;;3.88;100.00;99380.41;5164612;27;20264;-80
2022/12/20 07:31:02;;;;;;;36.50;21.67;;;;;;;3.91;100.00;99364.56;5170543;27;20226;-80
2022/12/20 07:33:32;;;;;;;38.40;22.90;;;;;;;3.91;100.00;99368.97;5161958;27;20659;-80
2022/12/20 07:36:02;;;;;;;39.83;22.77;;;;;;;3.95;100.00;99367.94;5170255;27;20213;-80
2022/12/20 07:38:32;;;;;;;37.20;21.20;;;;;;;4.01;100.00;99357.25;5169646;27;20311;-80
2022/12/20 07:41:00;;;;;;;31.40;20.07;;;;;;;4.08;100.00;99356.16;5169379;27;20647;-80
2022/12/20 07:43:29;;;;;;;36.37;21.53;;;;;;;4.06;100.00;99362.38;5167588;27;20199;-80
2022/12/20 07:45:57;;;;;;;35.27;20.83;;;;;;;4.13;100.00;99354.22;5165456;27;20233;-79
2022/12/20 07:48:27;;;;;;;34.47;21.33;;;;;;;4.13;100.00;99354.22;5169094;27;20220;-80
2022/12/20 07:50:59;;;;;;;33.83;21.50;;;;;;;4.14;100.00;99348.06;5165515;27;20208;-80
2022/12/20 07:53:31;;;;;;;34.13;22.23;;;;;;;4.18;100.00;99349.69;5167058;27;20197;-80
2022/12/20 07:56:03;;;;;;;31.13;20.90;;;;;;;4.15;100.00;99349.81;5171127;27;20208;-79
2022/12/20 07:58:34;;;;;;;31.53;19.93;;;;;;;4.15;100.00;99352.41;5125876;28;20231;-80
2022/12/20 08:01:04;;;;;;;30.77;19.77;;;;;;;4.25;100.00;99355.56;5124449;28;20195;-80
2022/12/20 08:03:38;;;;;;;35.97;19.73;;;;;;;4.34;100.00;99343.88;5119925;28;20286;-80
2022/12/20 08:06:08;;;;;;;36.77;20.43;;;;;;;4.40;100.00;99347.16;5119633;28;20202;-79
2022/12/20 08:08:41;;;;;;;31.13;20.00;;;;;;;4.38;100.00;99348.97;5124175;28;20235;-80
2022/12/20 08:11:15;;;;;;;31.63;19.30;;;;;;;4.43;100.00;99348.78;5127453;28;20719;-79
2022/12/20 08:13:45;;;;;;;28.13;18.73;;;;;;;4.52;100.00;99337.97;5121606;28;20186;-79
2022/12/20 08:16:18;;;;;;;32.97;19.07;;;;;;;4.53;100.00;99335.28;5137836;27;20284;-80
2022/12/20 08:18:46;;;;;;;28.07;17.97;;;;;;;4.58;100.00;99324.66;5167321;27;20280;-80
2022/12/20 08:21:15;;;;;;;33.03;18.73;;;;;;;4.56;100.00;99323.84;5118088;27;20201;-80
2022/12/20 08:23:43;;;;;;;29.90;17.53;;;;;;;4.61;100.00;99316.66;5167978;27;20231;-80
2022/12/20 08:26:14;;;;;;;30.10;17.83;;;;;;;4.63;100.00;99321.84;5168071;27;20273;-80
2022/12/20 08:28:43;;;;;;;27.67;17.67;;;;;;;4.70;100.00;99324.19;5166256;27;20315;-79
2022/12/20 08:31:12;;;;;;;29.07;17.97;;;;;;;4.68;100.00;99326.00;5161621;27;20197;-79
2022/12/20 08:33:41;;;;;;;29.80;18.33;;;;;;;4.67;100.00;99312.97;5168345;27;20250;-80
2022/12/20 08:36:13;;;;;;;30.40;19.23;;;;;;;4.69;100.00;99304.09;5166721;27;20200;-80
2022/12/20 08:38:43;;;;;;;30.57;19.53;;;;;;;4.71;100.00;99307.53;5174259;27;20218;-79
2022/12/20 08:41:17;;;;;;;28.43;17.63;;;;;;;4.65;100.00;99302.53;5108226;28;20268;-80
2022/12/20 08:43:46;;;;;;;28.50;18.33;;;;;;;4.74;100.00;99311.81;5110956;28;20228;-80
2022/12/20 08:46:15;;;;;;;30.10;19.07;;;;;;;4.72;100.00;99317.09;5108239;28;20309;-80
2022/12/20 08:48:44;;;;;;;32.70;19.33;;;;;;;4.76;100.00;99323.09;5076190;28;20259;-80
2022/12/20 08:51:13;;;;;;;27.23;18.87;;;;;;;4.80;100.00;99322.06;5070052;28;20242;-80
2022/12/20 08:53:41;;;;;;;30.63;19.07;;;;;;;4.80;100.00;99312.41;5066765;28;20247;-80
2022/12/20 08:56:13;;;;;;;34.20;19.50;;;;;;;4.85;100.00;99314.88;5063471;28;20258;-80
2022/12/20 08:58:44;;;;;;;32.37;19.93;;;;;;;4.91;100.00;99314.63;5072127;28;20199;-79
2022/12/20 09:01:14;;;;;;;30.30;18.83;;;;;;;4.85;100.00;99313.13;5104436;28;20236;-80
2022/12/20 09:03:44;;;;;;;32.00;19.87;;;;;;;4.84;100.00;99305.31;5113699;28;20211;-79
2022/12/20 09:06:14;;;;;;;31.97;19.67;;;;;;;4.88;100.00;99306.88;5110683;28;20193;-80
2022/12/20 09:08:43;;;;;;;33.17;19.73;;;;;;;5.00;100.00;99295.06;5110681;28;20242;-79
2022/12/20 09:11:14;;;;;;;29.40;18.80;;;;;;;4.98;100.00;99313.50;5108836;28;20187;-80
2022/12/20 09:13:48;;;;;;;31.83;19.33;;;;;;;4.90;100.00;99307.69;5108584;28;20228;-80
2022/12/20 09:16:19;;;;;;;30.57;19.53;;;;;;;4.95;100.00;99313.63;5027418;28;20271;-80
2022/12/20 09:18:49;;;;;;;30.27;18.90;;;;;;;4.95;100.00;99297.88;5022337;28;20337;-80
2022/12/20 09:21:18;;;;;;;28.50;18.60;;;;;;;5.02;100.00;99303.72;4983055;28;20202;-80
2022/12/20 09:23:50;;;;;;;29.60;18.33;;;;;;;5.03;100.00;99298.44;5082118;28;20235;-80
2022/12/20 09:26:20;;;;;;;26.30;17.30;;;;;;;5.17;100.00;99295.25;5089981;28;20188;-80
2022/12/20 09:28:51;;;;;;;26.33;18.17;;;;;;;5.15;100.00;99294.47;5084726;28;20356;-80
2022/12/20 09:31:21;;;;;;;26.87;18.30;;;;;;;5.17;100.00;99296.09;5046971;28;20201;-80
2022/12/20 09:33:53;;;;;;;28.23;17.63;;;;;;;5.09;100.00;99295.53;5063024;28;20210;-80
2022/12/20 09:36:23;;;;;;;27.53;17.80;;;;;;;5.13;100.00;99291.91;5106151;28;20199;-79
2022/12/20 09:38:55;;;;;;;29.70;18.30;;;;;;;5.09;100.00;99278.94;5110040;28;20191;-79
2022/12/20 09:41:32;;;;;;;28.63;17.90;;;;;;;5.22;100.00;99279.31;5113100;28;20195;-79
2022/12/20 09:44:14;;;;;;;26.50;17.90;;;;;;;5.23;100.00;99275.78;5106809;28;20269;-80
2022/12/20 09:46:44;;;;;;;24.90;17.63;;;;;;;5.26;100.00;99271.25;5106173;28;20199;-79
2022/12/20 09:49:17;;;;;;;25.50;16.97;;;;;;;5.31;100.00;99271.94;5105769;28;20229;-80
2022/12/20 09:52:11;;;;;;;23.67;16.13;;;;;;;5.36;100.00;99267.31;5106371;28;20240;-79
2022/12/20 09:54:51;;;;;;;27.27;16.60;;;;;;;5.33;100.00;99253.47;5107422;28;20518;-80
2022/12/20 09:57:27;;;;;;;25.00;16.27;;;;;;;5.30;100.00;99257.06;5103503;28;20195;-80
2022/12/20 09:59:59;;;;;;;24.70;15.97;;;;;;;5.37;100.00;99250.66;5101085;28;20194;-80
2022/12/20 10:02:30;;;;;;;24.70;16.27;;;;;;;5.39;100.00;99250.59;5100675;28;20207;-80
2022/12/20 10:05:26;;;;;;;22.80;15.07;;;;;;;5.42;100.00;99238.19;5112342;28;20280;-80
2022/12/20 10:08:03;;;;;;;22.33;15.20;;;;;;;5.45;100.00;99230.19;5109320;28;20195;-80
2022/12/20 10:10:48;;;;;;;21.87;14.80;;;;;;;5.60;100.00;99230.47;5106183;28;20303;-80
2022/12/20 10:13:30;;;;;;;24.07;15.60;;;;;;;5.52;100.00;99220.28;5162508;27;20244;-79
2022/12/20 10:16:14;;;;;;;21.33;14.73;;;;;;;5.61;100.00;99229.53;5128763;27;20198;-79
2022/12/20 10:18:56;;;;;;;22.93;14.93;;;;;;;5.67;100.00;99229.25;5127328;27;20713;-80
2022/12/20 10:21:36;;;;;;;22.90;15.13;;;;;;;5.67;100.00;99227.47;5128044;27;20201;-79
2022/12/20 10:24:14;;;;;;;24.17;14.87;;;;;;;5.61;100.00;99219.88;5121826;27;20259;-79
2022/12/20 10:26:43;;;;;;;21.13;14.00;;;;;;;5.66;100.00;99222.31;5123391;27;20201;-80
2022/12/20 10:29:12;;;;;;;21.40;15.17;;;;;;;5.69;100.00;99199.41;5121736;27;20210;-80
2022/12/20 10:31:43;;;;;;;22.17;14.67;;;;;;;5.81;100.00;99200.63;5132474;27;20200;-80
2022/12/20 10:34:12;;;;;;;23.90;14.00;;;;;;;5.83;100.00;99200.56;5148383;27;20193;-80
2022/12/20 10:36:41;;;;;;;22.90;14.07;;;;;;;5.78;100.00;99200.75;5167162;27;20185;-80
2022/12/20 10:39:10;;;;;;;22.63;15.13;;;;;;;5.80;100.00;99203.31;5163018;27;20297;-80
2022/12/20 10:41:50;;;;;;;21.70;14.03;;;;;;;5.76;100.00;99184.19;5116577;27;20224;-80
2022/12/20 10:44:25;;;;;;;24.57;15.23;;;;;;;5.67;100.00;99172.31;5165955;27;20200;-80
2022/12/20 10:46:58;;;;;;;24.23;15.60;;;;;;;5.77;100.00;99177.16;5168625;27;20204;-80
2022/12/20 10:49:31;;;;;;;22.37;15.43;;;;;;;5.81;100.00;99178.75;5168245;27;20265;-80
2022/12/20 10:52:12;;;;;;;24.80;15.53;;;;;;;5.81;100.00;99174.34;5175003;27;20196;-79
2022/12/20 10:54:41;;;;;;;21.73;14.37;;;;;;;5.83;100.00;99169.00;5168202;27;20208;-79
2022/12/20 10:57:18;;;;;;;24.13;15.03;;;;;;;5.78;100.00;99166.56;5163714;27;20200;-80
2022/12/20 10:59:51;;;;;;;22.17;15.30;;;;;;;5.82;100.00;99160.28;5170019;27;20213;-80
2022/12/20 11:02:32;;;;;;;26.00;15.23;;;;;;;5.82;100.00;99162.06;5166722;27;20644;-80
2022/12/20 11:05:31;;;;;;;21.77;14.33;;;;;;;5.78;100.00;99168.34;5174761;27;20215;-80
2022/12/20 11:08:07;;;;;;;22.07;15.33;;;;;;;5.81;100.00;99169.09;5165142;27;20209;-80
2022/12/20 11:11:16;;;;;;;23.43;15.50;;;;;;;5.88;100.00;99164.38;5174605;27;20276;-79
2022/12/20 11:13:46;;;;;;;20.80;15.00;;;;;;;5.83;100.00;99151.47;5171330;27;20185;-79
2022/12/20 11:16:30;;;;;;;23.27;15.60;;;;;;;5.81;100.00;99149.84;5173525;27;20205;-79
2022/12/20 11:19:18;;;;;;;23.50;15.63;;;;;;;5.75;100.00;99162.31;5168849;27;20208;-80
2022/12/20 11:21:57;;;;;;;22.63;14.87;;;;;;;5.84;100.00;99161.06;5171548;27;20185;-79
2022/12/20 11:24:35;;;;;;;23.10;15.50;;;;;;;5.73;100.00;99150.19;5172691;27;20498;-79
2022/12/20 11:27:17;;;;;;;23.67;15.73;;;;;;;5.62;100.00;99145.41;5172881;27;20245;-80
2022/12/20 11:30:06;;;;;;;22.93;15.70;;;;;;;5.56;100.00;99143.03;5168951;27;20208;-80
2022/12/20 11:32:47;;;;;;;26.63;17.60;;;;;;;5.59;100.00;99135.00;5172032;27;20196;-80
2022/12/20 11:35:23;;;;;;;20.33;14.53;;;;;;;5.53;100.00;99130.03;5169157;27;20193;-80
2022/12/20 11:38:05;;;;;;;24.77;16.23;;;;;;;5.45;100.00;99130.38;5170529;27;20192;-80
2022/12/20 11:40:42;;;;;;;25.87;16.57;;;;;;;5.44;100.00;99131.28;5170291;27;20192;-80
2022/12/20 11:43:25;;;;;;;23.23;16.53;;;;;;;5.44;100.00;99123.41;5168567;27;20245;-80
2022/12/20 11:46:09;;;;;;;25.77;17.37;;;;;;;5.39;100.00;99116.63;5119917;27;20181;-79
2022/12/20 11:48:54;;;;;;;27.07;18.27;;;;;;;5.34;100.00;99123.88;5173312;27;20185;-79
2022/12/20 11:51:35;;;;;;;26.37;17.17;;;;;;;5.32;100.00;99102.94;5170236;27;20209;-79
2022/12/20 11:54:11;;;;;;;26.90;17.80;;;;;;;5.29;100.00;99096.94;5171609;27;20192;-80